Time;durP1;ratioP1;P1;durP2;ratioP2;P2;SDS_P1;SDS_P2;PMS_P1;PMS_P2;Temp;Humidity;BMP_temperature;BMP_pressure;BME280_temperature;BME280_humidity;BME280_pressure;Samples;Min_cycle;Max_cycle;Signal;HPM_P1;HPM_P2
2024/04/14 00:01:58;;;;;;;5.53;3.10;;;17.80;99.90;;;;;;5381681;26;20629;-74
2024/04/14 00:04:23;;;;;;;3.23;2.47;;;17.80;99.90;;;;;;5379618;26;20272;-72
2024/04/14 00:06:49;;;;;;;3.77;2.47;;;17.70;99.90;;;;;;5363556;26;20301;-73
2024/04/14 00:09:15;;;;;;;3.63;2.83;;;17.70;99.90;;;;;;5386224;26;20371;-73
2024/04/14 00:11:40;;;;;;;2.83;2.57;;;17.70;99.90;;;;;;5375899;26;20266;-73
2024/04/14 00:14:06;;;;;;;6.63;3.40;;;17.70;99.90;;;;;;5364383;26;20360;-74
2024/04/14 00:16:32;;;;;;;3.80;3.40;;;17.60;99.90;;;;;;5386549;26;20257;-73
2024/04/14 00:18:57;;;;;;;2.60;2.40;;;17.70;99.90;;;;;;5382272;26;20308;-73
2024/04/14 00:21:23;;;;;;;2.73;2.43;;;17.60;99.90;;;;;;5388216;26;20261;-73
2024/04/14 00:23:49;;;;;;;4.83;3.03;;;17.60;99.90;;;;;;5389140;26;20301;-74
2024/04/14 00:26:15;;;;;;;2.70;2.50;;;17.60;99.90;;;;;;5386058;26;20697;-73
2024/04/14 00:28:41;;;;;;;3.33;2.80;;;17.60;99.90;;;;;;5382834;26;20506;-75
2024/04/14 00:31:07;;;;;;;2.90;2.70;;;17.50;99.90;;;;;;5387855;26;20344;-73
2024/04/14 00:33:34;;;;;;;3.20;2.87;;;17.50;99.90;;;;;;5376341;26;20322;-73
2024/04/14 00:36:03;;;;;;;2.77;2.53;;;17.50;99.90;;;;;;5354441;26;20262;-72
2024/04/14 00:38:29;;;;;;;3.50;2.90;;;17.50;99.90;;;;;;5373737;26;20503;-72
2024/04/14 00:40:54;;;;;;;3.67;2.70;;;17.50;99.90;;;;;;5359374;26;21054;-73
2024/04/14 00:43:20;;;;;;;6.67;3.00;;;17.40;99.90;;;;;;5373221;26;20818;-72
2024/04/14 00:45:47;;;;;;;2.87;2.67;;;17.40;99.90;;;;;;5381648;26;20616;-75
2024/04/14 00:48:13;;;;;;;2.80;2.60;;;17.40;99.90;;;;;;5392218;26;20487;-74
2024/04/14 00:50:40;;;;;;;2.60;2.40;;;17.40;99.90;;;;;;5383333;26;20489;-72
2024/04/14 00:53:07;;;;;;;2.83;2.57;;;17.30;99.90;;;;;;5384903;26;20547;-75
2024/04/14 00:55:34;;;;;;;2.57;2.37;;;17.30;99.90;;;;;;5390840;26;21027;-73
2024/04/14 00:58:01;;;;;;;2.47;2.27;;;17.20;99.90;;;;;;5382093;26;20503;-74
2024/04/14 01:00:27;;;;;;;2.63;2.43;;;17.20;99.90;;;;;;5376304;26;20526;-73
2024/04/14 01:02:55;;;;;;;3.07;2.50;;;17.20;99.90;;;;;;5382970;26;20480;-74
2024/04/14 01:05:24;;;;;;;3.60;2.47;;;17.20;99.90;;;;;;5377805;26;20490;-72
2024/04/14 01:07:52;;;;;;;3.40;3.10;;;17.20;99.90;;;;;;5390431;26;20539;-73
2024/04/14 01:10:19;;;;;;;3.30;2.60;;;17.10;99.90;;;;;;5375289;26;20477;-73
2024/04/14 01:12:45;;;;;;;2.57;2.37;;;17.10;99.90;;;;;;5384473;26;20553;-72
2024/04/14 01:15:11;;;;;;;4.87;2.70;;;17.10;99.90;;;;;;5382046;26;20500;-73
2024/04/14 01:17:37;;;;;;;3.13;2.83;;;17.10;99.90;;;;;;5379627;26;20308;-72
2024/04/14 01:20:03;;;;;;;3.50;2.67;;;17.00;99.90;;;;;;5381004;26;21020;-74
2024/04/14 01:22:29;;;;;;;3.07;2.60;;;17.00;99.90;;;;;;5348898;26;20266;-73
2024/04/14 01:25:08;;;;;;;2.40;2.20;;;17.00;99.90;;;;;;5391060;26;20942;-71
2024/04/14 01:27:35;;;;;;;4.00;3.07;;;17.00;99.90;;;;;;5412180;26;20289;-73
2024/04/14 01:30:03;;;;;;;4.03;2.97;;;17.00;99.90;;;;;;5388146;26;20497;-73
2024/04/14 01:32:29;;;;;;;2.00;1.90;;;17.00;99.90;;;;;;5376431;26;21079;-74
2024/04/14 01:34:55;;;;;;;3.23;2.93;;;17.00;99.90;;;;;;5379632;26;20552;-73
2024/04/14 01:37:20;;;;;;;4.10;2.83;;;16.90;99.90;;;;;;5380793;26;20583;-75
2024/04/14 01:39:46;;;;;;;4.30;3.30;;;16.90;99.90;;;;;;5384975;26;20260;-73
2024/04/14 01:42:12;;;;;;;2.33;2.13;;;16.90;99.90;;;;;;5377528;26;20329;-73
2024/04/14 01:44:37;;;;;;;3.27;2.70;;;16.90;99.90;;;;;;5355706;26;20346;-74
2024/04/14 01:47:03;;;;;;;3.13;2.60;;;16.90;99.90;;;;;;5383874;26;20269;-72
2024/04/14 01:49:28;;;;;;;5.47;3.47;;;16.80;99.90;;;;;;5377289;26;20254;-73
2024/04/14 01:51:54;;;;;;;5.23;3.40;;;16.80;99.90;;;;;;5377742;26;20377;-72
2024/04/14 01:54:20;;;;;;;3.93;2.90;;;16.70;99.90;;;;;;5375825;26;20359;-73
2024/04/14 01:56:45;;;;;;;3.70;2.70;;;16.60;99.90;;;;;;5357313;26;20273;-73
2024/04/14 01:59:12;;;;;;;3.47;2.50;;;16.50;99.90;;;;;;5378738;26;20324;-73
2024/04/14 02:01:38;;;;;;;3.23;2.50;;;16.50;99.90;;;;;;5378233;26;20264;-73
2024/04/14 02:04:04;;;;;;;2.70;2.50;;;16.50;99.90;;;;;;5378335;26;20619;-72
2024/04/14 02:06:29;;;;;;;2.70;2.50;;;16.50;99.90;;;;;;5368115;26;20262;-74
2024/04/14 02:08:55;;;;;;;4.47;2.77;;;16.50;99.90;;;;;;5379361;26;20500;-71
2024/04/14 02:11:21;;;;;;;3.40;2.93;;;16.40;99.90;;;;;;5375826;26;20278;-72
2024/04/14 02:13:47;;;;;;;3.33;2.60;;;16.30;99.90;;;;;;5399812;26;20307;-76
2024/04/14 02:16:12;;;;;;;2.70;2.50;;;16.30;99.90;;;;;;5373909;26;20262;-72
2024/04/14 02:18:38;;;;;;;2.27;2.17;;;16.30;99.90;;;;;;5380825;26;20370;-75
2024/04/14 02:21:04;;;;;;;2.53;2.17;;;16.30;99.90;;;;;;5388817;26;20312;-73
2024/04/14 02:23:30;;;;;;;4.87;2.60;;;16.30;99.90;;;;;;5344775;26;20355;-73
2024/04/14 02:25:56;;;;;;;3.17;2.77;;;16.40;99.90;;;;;;5381949;26;20309;-72
2024/04/14 02:28:22;;;;;;;2.97;2.60;;;16.50;99.90;;;;;;5344793;26;20683;-72
2024/04/14 02:30:49;;;;;;;3.43;2.17;;;16.50;99.90;;;;;;5376613;26;20589;-72
2024/04/14 02:33:15;;;;;;;3.60;2.40;;;16.50;99.90;;;;;;5382499;26;20488;-75
2024/04/14 02:35:50;;;;;;;2.77;2.47;;;16.50;99.90;;;;;;5373950;26;20540;-73
2024/04/14 02:38:15;;;;;;;4.03;2.53;;;16.50;99.90;;;;;;5380928;26;20597;-73
2024/04/14 02:40:41;;;;;;;4.13;3.10;;;16.50;99.90;;;;;;5384190;26;20498;-73
2024/04/14 02:43:08;;;;;;;3.27;2.97;;;16.50;99.90;;;;;;5380310;26;20324;-73
2024/04/14 02:45:33;;;;;;;3.43;2.90;;;16.50;99.90;;;;;;5380181;26;20304;-73
2024/04/14 02:47:59;;;;;;;2.93;2.63;;;16.40;99.90;;;;;;5375878;26;20491;-72
2024/04/14 02:50:25;;;;;;;2.10;1.90;;;16.40;99.90;;;;;;5353104;26;20258;-73
2024/04/14 02:52:50;;;;;;;3.43;2.50;;;16.40;99.90;;;;;;5383903;26;20262;-74
2024/04/14 02:55:16;;;;;;;2.57;2.37;;;16.40;99.90;;;;;;5384296;26;20269;-72
2024/04/14 02:57:44;;;;;;;2.57;2.10;;;16.40;99.90;;;;;;5340718;26;20340;-73
2024/04/14 03:00:11;;;;;;;3.70;2.47;;;16.30;99.90;;;;;;5391185;26;20258;-74
2024/04/14 03:02:37;;;;;;;3.60;3.07;;;16.30;99.90;;;;;;5357570;26;20551;-71
2024/04/14 03:05:03;;;;;;;2.87;2.57;;;16.30;99.90;;;;;;5375388;26;20605;-72
2024/04/14 03:07:28;;;;;;;4.10;2.30;;;16.30;99.90;;;;;;5374472;26;20494;-73
2024/04/14 03:09:54;;;;;;;3.27;2.03;;;16.30;99.90;;;;;;5382526;26;20272;-72
2024/04/14 03:12:20;;;;;;;2.27;2.07;;;16.30;99.90;;;;;;5374903;26;20269;-75
2024/04/14 03:14:45;;;;;;;2.60;2.40;;;16.30;99.90;;;;;;5380336;26;20262;-72
2024/04/14 03:17:11;;;;;;;3.13;2.37;;;16.30;99.90;;;;;;5378655;26;20359;-72
2024/04/14 03:19:36;;;;;;;2.10;2.00;;;16.30;99.90;;;;;;5379159;26;20269;-73
2024/04/14 03:22:02;;;;;;;4.53;3.33;;;16.30;99.90;;;;;;5348790;26;20256;-73
2024/04/14 03:24:28;;;;;;;3.00;2.70;;;16.30;99.90;;;;;;5379339;26;20299;-73
2024/04/14 03:26:58;;;;;;;3.00;2.20;;;16.20;99.90;;;;;;5379779;26;20492;-72
2024/04/14 03:29:23;;;;;;;2.03;1.93;;;16.30;99.90;;;;;;5376041;26;20325;-72
2024/04/14 03:31:49;;;;;;;3.93;2.23;;;16.30;99.90;;;;;;5390436;26;20543;-74
2024/04/14 03:34:15;;;;;;;3.23;2.23;;;16.40;99.90;;;;;;5381358;26;20258;-73
2024/04/14 03:36:40;;;;;;;2.67;2.40;;;16.30;99.90;;;;;;5383780;26;20265;-73
2024/04/14 03:39:06;;;;;;;2.73;2.53;;;16.30;99.90;;;;;;5380793;26;20265;-72
2024/04/14 03:41:32;;;;;;;3.90;2.77;;;16.20;99.90;;;;;;5378056;26;20277;-73
2024/04/14 03:43:57;;;;;;;5.77;3.10;;;16.20;99.90;;;;;;5381572;26;20321;-73
2024/04/14 03:46:23;;;;;;;3.70;2.83;;;16.20;99.90;;;;;;5390802;26;20900;-74
2024/04/14 03:48:49;;;;;;;3.00;2.43;;;16.10;99.90;;;;;;5378328;26;20257;-73
2024/04/14 03:51:16;;;;;;;2.53;2.33;;;16.10;99.90;;;;;;5378175;26;20261;-72
2024/04/14 03:53:43;;;;;;;3.90;2.50;;;16.20;99.90;;;;;;5375142;26;20257;-74
2024/04/14 03:56:09;;;;;;;2.57;2.37;;;16.30;99.90;;;;;;5382136;26;20491;-74
2024/04/14 03:58:35;;;;;;;2.67;2.47;;;16.30;99.90;;;;;;5368759;26;20575;-73
2024/04/14 04:01:00;;;;;;;2.50;2.30;;;16.30;99.90;;;;;;5376071;26;20260;-71
2024/04/14 04:03:26;;;;;;;2.93;2.73;;;16.30;99.90;;;;;;5380112;26;20262;-73
2024/04/14 04:05:54;;;;;;;2.90;2.67;;;16.30;99.90;;;;;;5375531;26;20256;-75
2024/04/14 04:08:21;;;;;;;2.33;2.13;;;16.20;99.90;;;;;;5388635;26;20322;-73
2024/04/14 04:10:56;;;;;;;2.73;2.50;;;16.00;99.90;;;;;;5380112;26;20500;-73
2024/04/14 04:13:23;;;;;;;5.03;2.53;;;15.90;99.90;;;;;;5373439;26;21188;-74
2024/04/14 04:16:00;;;;;;;2.97;2.77;;;15.90;99.90;;;;;;5355963;26;20550;-72
2024/04/14 04:18:27;;;;;;;3.17;2.90;;;15.90;99.90;;;;;;5386643;26;20556;-71
2024/04/14 04:20:53;;;;;;;2.47;2.27;;;16.00;99.90;;;;;;5390535;26;20597;-72
2024/04/14 04:23:19;;;;;;;2.60;2.40;;;16.00;99.90;;;;;;5371636;26;20488;-72
2024/04/14 04:25:44;;;;;;;3.93;2.60;;;16.00;99.90;;;;;;5387997;26;20535;-73
2024/04/14 04:28:10;;;;;;;4.03;2.57;;;16.00;99.90;;;;;;5394078;26;20257;-74
2024/04/14 04:30:36;;;;;;;4.20;3.40;;;16.00;99.90;;;;;;5377760;26;20309;-74
2024/04/14 04:33:01;;;;;;;3.50;3.20;;;16.00;99.90;;;;;;5388214;26;20373;-72
2024/04/14 04:35:27;;;;;;;2.37;2.27;;;16.00;99.90;;;;;;5354495;26;20274;-73
2024/04/14 04:37:52;;;;;;;2.30;2.10;;;16.10;99.90;;;;;;5383652;26;20276;-71
2024/04/14 04:40:18;;;;;;;3.10;2.90;;;16.20;99.90;;;;;;5383778;26;20272;-70
2024/04/14 04:42:44;;;;;;;4.20;2.60;;;16.20;99.90;;;;;;5372589;26;20258;-72
2024/04/14 04:45:10;;;;;;;2.77;2.53;;;16.20;99.90;;;;;;5382693;26;20246;-72
2024/04/14 04:47:36;;;;;;;4.87;2.97;;;16.20;99.90;;;;;;5375524;26;20261;-72
2024/04/14 04:50:01;;;;;;;2.77;2.57;;;16.20;99.90;;;;;;5387821;26;20402;-72
2024/04/14 04:52:27;;;;;;;4.10;2.90;;;16.10;99.90;;;;;;5374678;26;20270;-71
2024/04/14 04:54:52;;;;;;;3.37;2.40;;;16.10;99.90;;;;;;5381936;26;20311;-72
2024/04/14 04:57:18;;;;;;;2.30;2.10;;;16.10;99.90;;;;;;5383974;26;20262;-72
2024/04/14 04:59:44;;;;;;;3.77;2.60;;;16.10;99.90;;;;;;5381981;26;20254;-72
2024/04/14 05:02:09;;;;;;;2.00;1.90;;;16.10;99.90;;;;;;5381221;26;20815;-73
2024/04/14 05:04:35;;;;;;;4.13;2.50;;;16.10;99.90;;;;;;5376012;26;20269;-72
2024/04/14 05:07:01;;;;;;;2.27;2.07;;;16.10;99.90;;;;;;5384542;26;20263;-72
2024/04/14 05:09:27;;;;;;;3.97;2.67;;;16.10;99.90;;;;;;5377610;26;20667;-73
2024/04/14 05:11:52;;;;;;;2.70;2.50;;;16.10;99.90;;;;;;5384473;26;20537;-73
2024/04/14 05:14:18;;;;;;;3.00;2.60;;;16.10;99.90;;;;;;5386412;26;20254;-72
2024/04/14 05:16:44;;;;;;;3.50;2.33;;;16.10;99.90;;;;;;5375088;26;20264;-73
2024/04/14 05:19:09;;;;;;;4.50;2.57;;;16.10;99.90;;;;;;5388231;26;20303;-73
2024/04/14 05:21:35;;;;;;;2.80;2.60;;;16.10;99.90;;;;;;5369098;26;20352;-72
2024/04/14 05:24:00;;;;;;;2.47;2.27;;;16.10;99.90;;;;;;5382536;26;20362;-72
2024/04/14 05:26:26;;;;;;;3.57;2.40;;;16.10;99.90;;;;;;5369299;26;20261;-69
2024/04/14 05:28:52;;;;;;;2.60;2.40;;;16.10;99.90;;;;;;5365227;26;20309;-72
2024/04/14 05:31:18;;;;;;;3.40;2.80;;;16.10;99.90;;;;;;5390099;26;20265;-74
2024/04/14 05:33:43;;;;;;;2.00;1.90;;;16.20;99.90;;;;;;5384105;26;20809;-74
2024/04/14 05:36:09;;;;;;;4.03;2.23;;;16.20;99.90;;;;;;5394705;26;20554;-72
2024/04/14 05:38:35;;;;;;;2.70;2.10;;;16.20;99.90;;;;;;5382661;26;20361;-71
2024/04/14 05:41:04;;;;;;;2.60;2.40;;;16.20;99.90;;;;;;5385851;26;20321;-73
2024/04/14 05:43:30;;;;;;;2.23;2.03;;;16.30;99.90;;;;;;5385088;26;20549;-73
2024/04/14 05:45:57;;;;;;;2.60;2.40;;;16.20;99.90;;;;;;5390776;26;20495;-71
2024/04/14 05:48:23;;;;;;;3.20;2.90;;;16.20;99.90;;;;;;5386587;26;20488;-73
2024/04/14 05:50:48;;;;;;;3.57;2.90;;;16.20;99.90;;;;;;5361051;26;21055;-72
2024/04/14 05:53:15;;;;;;;2.87;2.17;;;16.20;99.90;;;;;;5395045;26;20375;-73
2024/04/14 05:55:41;;;;;;;4.57;2.57;;;16.20;99.90;;;;;;5353469;26;20266;-72
2024/04/14 05:58:07;;;;;;;2.60;1.93;;;16.20;99.90;;;;;;5390384;26;20561;-73
2024/04/14 06:00:35;;;;;;;2.97;2.50;;;16.20;99.90;;;;;;5377430;26;20262;-74
2024/04/14 06:03:01;;;;;;;3.43;2.33;;;16.20;99.90;;;;;;5381146;26;20538;-73
2024/04/14 06:05:27;;;;;;;3.83;2.33;;;16.20;99.90;;;;;;5380766;26;21070;-71
2024/04/14 06:07:52;;;;;;;2.20;2.10;;;16.20;99.90;;;;;;5364416;26;20541;-73
2024/04/14 06:10:18;;;;;;;3.07;2.43;;;16.20;99.90;;;;;;5390975;26;20296;-75
2024/04/14 06:12:44;;;;;;;2.80;2.50;;;16.20;99.90;;;;;;5383529;26;20316;-72
2024/04/14 06:15:09;;;;;;;2.93;2.37;;;16.20;99.90;;;;;;5365915;26;20253;-72
2024/04/14 06:17:35;;;;;;;2.37;2.17;;;16.20;99.90;;;;;;5391806;26;20274;-72
2024/04/14 06:20:01;;;;;;;2.33;2.13;;;16.20;99.90;;;;;;5417535;26;20262;-73
2024/04/14 06:22:27;;;;;;;2.37;2.17;;;16.20;99.90;;;;;;5382039;26;20258;-74
2024/04/14 06:24:53;;;;;;;5.90;2.10;;;16.20;99.90;;;;;;5363963;26;20555;-73
2024/04/14 06:27:19;;;;;;;2.17;2.00;;;16.20;99.90;;;;;;5381156;26;20487;-71
2024/04/14 06:29:44;;;;;;;2.20;2.00;;;16.20;99.90;;;;;;5384784;26;20597;-72
2024/04/14 06:32:10;;;;;;;2.13;1.93;;;16.20;99.90;;;;;;5382958;26;20981;-72
2024/04/14 06:34:36;;;;;;;2.47;2.27;;;16.30;99.90;;;;;;5360554;26;20288;-72
2024/04/14 06:37:02;;;;;;;4.83;2.10;;;16.20;99.90;;;;;;5383572;26;20475;-72
2024/04/14 06:39:28;;;;;;;4.03;2.27;;;16.20;99.90;;;;;;5379029;26;20299;-72
2024/04/14 06:41:54;;;;;;;2.47;2.27;;;16.20;99.90;;;;;;5377242;26;20266;-73
2024/04/14 06:44:20;;;;;;;3.53;2.40;;;16.30;99.90;;;;;;5385796;26;20586;-75
2024/04/14 06:46:45;;;;;;;2.77;2.43;;;16.40;99.90;;;;;;5381284;26;20550;-72
2024/04/14 06:49:11;;;;;;;2.57;2.37;;;16.40;99.90;;;;;;5361222;26;20261;-75
2024/04/14 06:51:37;;;;;;;3.37;2.40;;;16.40;99.90;;;;;;5377292;26;20250;-73
2024/04/14 06:54:02;;;;;;;3.50;3.20;;;16.40;99.90;;;;;;5376685;26;20312;-73
2024/04/14 06:56:28;;;;;;;4.10;3.70;;;16.50;99.90;;;;;;5379975;26;20696;-70
2024/04/14 06:58:54;;;;;;;6.90;3.03;;;16.50;99.90;;;;;;5377485;26;20814;-73
2024/04/14 07:01:19;;;;;;;4.40;2.87;;;16.50;99.90;;;;;;5381791;26;20329;-75
2024/04/14 07:03:45;;;;;;;3.50;2.73;;;16.50;99.90;;;;;;5370941;26;20254;-72
2024/04/14 07:06:10;;;;;;;3.77;2.53;;;16.60;99.90;;;;;;5383885;26;20266;-73
2024/04/14 07:08:36;;;;;;;3.40;2.60;;;16.60;99.90;;;;;;5381803;26;20680;-73
2024/04/14 07:11:02;;;;;;;4.13;2.47;;;16.60;99.90;;;;;;5381751;26;20262;-74
2024/04/14 07:13:27;;;;;;;6.03;2.90;;;16.70;99.90;;;;;;5372150;26;20852;-72
2024/04/14 07:15:53;;;;;;;2.63;2.43;;;16.70;99.90;;;;;;5388347;26;20680;-72
2024/04/14 07:18:19;;;;;;;2.50;2.20;;;16.80;99.90;;;;;;5382548;26;20334;-74
2024/04/14 07:20:45;;;;;;;2.30;2.10;;;16.80;99.90;;;;;;5380835;26;20465;-73
2024/04/14 07:23:10;;;;;;;2.40;2.20;;;16.80;99.90;;;;;;5391290;26;20314;-73
2024/04/14 07:25:36;;;;;;;3.00;2.20;;;16.90;99.90;;;;;;5389965;26;20366;-73
2024/04/14 07:28:02;;;;;;;2.90;2.60;;;16.90;99.90;;;;;;5386124;26;20272;-73
2024/04/14 07:30:27;;;;;;;2.10;1.93;;;16.90;99.90;;;;;;5376226;26;20368;-73
2024/04/14 07:32:53;;;;;;;4.53;3.60;;;17.00;99.90;;;;;;5356306;26;20279;-73
2024/04/14 07:35:18;;;;;;;2.33;2.13;;;17.00;99.90;;;;;;5364673;26;20249;-73
2024/04/14 07:37:44;;;;;;;2.80;2.07;;;17.00;99.90;;;;;;5375916;26;20613;-76
2024/04/14 07:40:10;;;;;;;3.13;2.50;;;17.10;99.90;;;;;;5363726;26;20292;-73
2024/04/14 07:42:35;;;;;;;2.50;2.30;;;17.10;99.90;;;;;;5380190;26;20261;-73
2024/04/14 07:45:01;;;;;;;2.70;2.23;;;17.10;99.90;;;;;;5375892;26;20372;-73
2024/04/14 07:47:27;;;;;;;5.00;2.67;;;17.10;99.90;;;;;;5373491;26;21036;-72
2024/04/14 07:49:53;;;;;;;3.20;1.93;;;17.10;99.90;;;;;;5380906;26;20261;-73
2024/04/14 07:52:18;;;;;;;2.63;2.43;;;17.20;99.90;;;;;;5380591;26;20312;-73
2024/04/14 07:54:44;;;;;;;1.90;1.80;;;17.30;99.90;;;;;;5377889;26;20696;-73
2024/04/14 07:57:10;;;;;;;5.23;2.27;;;17.40;99.90;;;;;;5387424;26;20648;-75
2024/04/14 07:59:37;;;;;;;2.37;2.17;;;17.50;99.90;;;;;;5375350;26;20303;-72
2024/04/14 08:02:03;;;;;;;2.83;1.97;;;17.50;99.90;;;;;;5383366;26;20976;-75
2024/04/14 08:04:29;;;;;;;2.30;2.10;;;17.60;99.90;;;;;;5391263;26;20490;-72
2024/04/14 08:06:54;;;;;;;2.10;1.90;;;17.80;99.90;;;;;;5380252;26;20482;-73
2024/04/14 08:09:20;;;;;;;2.60;2.20;;;17.90;99.90;;;;;;5384024;26;20535;-72
2024/04/14 08:11:46;;;;;;;2.60;1.80;;;17.90;99.90;;;;;;5342544;26;20281;-71
2024/04/14 08:14:13;;;;;;;1.83;1.73;;;17.90;99.90;;;;;;5384390;26;20309;-74
2024/04/14 08:16:39;;;;;;;2.23;2.03;;;17.80;99.90;;;;;;5347874;26;20496;-73
2024/04/14 08:19:05;;;;;;;1.93;1.77;;;17.80;99.90;;;;;;5355416;26;20495;-73
2024/04/14 08:21:31;;;;;;;2.70;2.03;;;17.90;99.90;;;;;;5379334;26;20613;-72
2024/04/14 08:23:57;;;;;;;3.00;1.80;;;18.00;99.90;;;;;;5384549;26;20355;-73
2024/04/14 08:26:22;;;;;;;2.70;1.90;;;18.10;99.90;;;;;;5341830;26;20297;-72
2024/04/14 08:28:48;;;;;;;2.27;2.07;;;18.30;99.90;;;;;;5371976;26;20274;-71
2024/04/14 08:31:16;;;;;;;1.80;1.70;;;18.30;99.90;;;;;;5376430;26;20609;-72
2024/04/14 08:33:42;;;;;;;2.40;2.20;;;18.50;99.90;;;;;;5352250;26;20312;-71
2024/04/14 08:36:09;;;;;;;2.53;2.30;;;18.60;99.90;;;;;;5376076;26;20497;-70
2024/04/14 08:38:35;;;;;;;2.17;2.00;;;18.70;99.90;;;;;;5372437;26;20781;-70
2024/04/14 08:41:00;;;;;;;3.03;2.20;;;18.80;99.90;;;;;;5377940;26;20491;-71
2024/04/14 08:43:26;;;;;;;2.20;1.97;;;18.80;99.90;;;;;;5353752;26;20697;-72
2024/04/14 08:45:53;;;;;;;3.10;1.90;;;18.80;99.90;;;;;;5384840;26;20258;-71
2024/04/14 08:48:19;;;;;;;3.60;2.00;;;18.90;99.90;;;;;;5382628;26;20479;-70
2024/04/14 08:50:46;;;;;;;3.77;2.40;;;18.90;99.90;;;;;;5370317;26;20544;-76
2024/04/14 08:53:14;;;;;;;1.97;1.87;;;19.00;99.90;;;;;;5350566;26;20481;-75
2024/04/14 08:55:41;;;;;;;6.30;2.37;;;19.20;99.90;;;;;;5375721;26;20596;-73
2024/04/14 08:58:09;;;;;;;2.03;1.93;;;19.30;99.90;;;;;;5372098;26;20573;-73
2024/04/14 09:00:37;;;;;;;1.83;1.73;;;19.40;99.90;;;;;;5367982;26;20587;-73
2024/04/14 09:03:04;;;;;;;2.20;2.00;;;19.50;99.90;;;;;;5373710;26;20616;-73
2024/04/14 09:05:34;;;;;;;1.90;1.70;;;19.60;99.90;;;;;;5378028;26;20599;-73
2024/04/14 09:07:59;;;;;;;3.23;1.80;;;19.50;99.90;;;;;;5377031;26;20491;-73
2024/04/14 09:10:25;;;;;;;2.60;1.80;;;19.80;99.90;;;;;;5372739;26;20594;-72
2024/04/14 09:12:53;;;;;;;1.80;1.70;;;20.00;99.90;;;;;;5370840;26;20362;-72
2024/04/14 09:15:19;;;;;;;2.20;1.80;;;20.10;99.90;;;;;;5379589;26;20566;-70
2024/04/14 09:17:45;;;;;;;1.63;1.53;;;20.00;99.90;;;;;;5375227;26;20484;-73
2024/04/14 09:20:11;;;;;;;1.93;1.80;;;20.20;99.90;;;;;;5360147;26;20832;-73
2024/04/14 09:22:37;;;;;;;1.93;1.80;;;20.30;99.90;;;;;;5377859;26;20328;-73
2024/04/14 09:25:06;;;;;;;3.17;1.57;;;20.40;99.90;;;;;;5379432;26;20270;-75
2024/04/14 09:27:32;;;;;;;1.80;1.70;;;20.40;99.90;;;;;;5370533;26;21110;-71
2024/04/14 09:30:23;;;;;;;2.03;1.70;;;20.50;99.90;;;;;;5379184;26;21126;-71
2024/04/14 09:32:51;;;;;;;2.37;2.17;;;20.50;99.90;;;;;;5371940;26;20492;-75
2024/04/14 09:35:18;;;;;;;2.10;1.90;;;20.50;99.90;;;;;;5380194;26;20484;-75
2024/04/14 09:37:44;;;;;;;2.23;1.83;;;20.30;99.90;;;;;;5376767;26;20487;-73
2024/04/14 09:40:12;;;;;;;2.40;1.80;;;20.40;99.90;;;;;;5376347;26;21486;-73
2024/04/14 09:42:38;;;;;;;2.10;1.90;;;20.50;99.90;;;;;;5342457;26;20546;-73
2024/04/14 09:45:05;;;;;;;1.73;1.63;;;20.50;99.90;;;;;;5377169;26;20501;-74
2024/04/14 09:47:31;;;;;;;2.43;2.27;;;20.70;99.90;;;;;;5387366;26;20530;-73
2024/04/14 09:50:00;;;;;;;3.30;2.00;;;20.50;99.90;;;;;;5378924;26;20483;-75
2024/04/14 09:52:28;;;;;;;2.00;1.67;;;20.90;99.90;;;;;;5376731;26;20488;-73
2024/04/14 09:54:57;;;;;;;2.20;2.00;;;20.90;99.90;;;;;;5352189;26;20472;-72
2024/04/14 09:57:23;;;;;;;2.00;1.90;;;21.00;99.90;;;;;;5381577;26;20468;-74
2024/04/14 09:59:49;;;;;;;2.20;2.00;;;20.90;99.90;;;;;;5368334;26;20553;-74
2024/04/14 10:02:22;;;;;;;3.70;3.40;;;20.70;99.90;;;;;;5354349;26;20291;-73
2024/04/14 10:04:52;;;;;;;4.97;2.07;;;20.90;99.90;;;;;;5370419;26;20265;-73
2024/04/14 10:07:18;;;;;;;2.30;2.17;;;20.90;99.90;;;;;;5339467;26;20553;-74
2024/04/14 10:09:49;;;;;;;2.97;2.77;;;20.90;99.90;;;;;;5382837;26;20911;-74
2024/04/14 10:12:18;;;;;;;3.07;2.83;;;21.10;99.90;;;;;;5376562;26;20494;-74
2024/04/14 10:14:45;;;;;;;5.37;4.97;;;21.10;99.90;;;;;;5347286;26;20549;-74
2024/04/14 10:17:17;;;;;;;4.77;3.73;;;21.30;99.90;;;;;;5383148;26;20499;-73
2024/04/14 10:19:59;;;;;;;9.00;8.20;;;21.40;99.90;;;;;;5368137;26;20529;-74
2024/04/14 10:22:36;;;;;;;8.97;8.07;;;21.50;99.90;;;;;;5351927;26;20531;-74
2024/04/14 10:25:02;;;;;;;9.33;8.30;;;21.50;99.90;;;;;;5360474;26;20642;-74
2024/04/14 10:27:33;;;;;;;10.60;7.50;;;21.40;99.90;;;;;;5365477;26;20472;-72
2024/04/14 10:30:00;;;;;;;9.47;8.47;;;21.60;99.90;;;;;;5336370;26;20538;-73
2024/04/14 10:32:27;;;;;;;8.20;5.60;;;21.60;99.90;;;;;;5361843;26;20562;-74
2024/04/14 10:34:54;;;;;;;3.60;2.90;;;21.60;99.90;;;;;;5366376;26;20480;-75
2024/04/14 10:37:23;;;;;;;4.00;2.90;;;21.10;99.90;;;;;;5372560;26;20484;-74
2024/04/14 10:39:51;;;;;;;3.63;2.93;;;21.60;99.90;;;;;;5370226;26;20547;-74
2024/04/14 10:42:17;;;;;;;2.90;2.20;;;21.90;99.90;;;;;;5356331;26;20490;-73
2024/04/14 10:44:43;;;;;;;2.50;2.20;;;22.30;99.90;;;;;;5378813;26;20540;-74
2024/04/14 10:47:10;;;;;;;2.10;2.00;;;22.30;99.90;;;;;;5384837;26;20750;-73
2024/04/14 10:49:36;;;;;;;1.60;1.50;;;22.40;99.90;;;;;;5385585;26;21065;-72
2024/04/14 10:52:02;;;;;;;2.10;2.00;;;22.60;99.90;;;;;;5384160;26;20612;-74
2024/04/14 10:54:29;;;;;;;2.30;1.90;;;22.60;99.90;;;;;;5372118;26;20861;-71
2024/04/14 10:56:55;;;;;;;2.40;2.03;;;22.40;99.90;;;;;;5372534;26;20905;-71
2024/04/14 10:59:22;;;;;;;1.83;1.60;;;22.50;99.90;;;;;;5393582;26;20782;-74
2024/04/14 11:01:49;;;;;;;1.60;1.50;;;22.50;99.90;;;;;;5375766;26;20304;-74
2024/04/14 11:04:16;;;;;;;1.43;1.33;;;22.60;99.90;;;;;;5382022;26;20837;-72
2024/04/14 11:06:42;;;;;;;3.27;2.23;;;22.50;99.90;;;;;;5372960;26;20547;-73
2024/04/14 11:09:10;;;;;;;2.07;1.97;;;22.40;99.90;;;;;;5376952;26;20487;-72
2024/04/14 11:11:37;;;;;;;1.83;1.73;;;22.30;99.90;;;;;;5382612;26;20603;-73
2024/04/14 11:14:03;;;;;;;2.20;1.90;;;22.40;99.90;;;;;;5383144;26;20689;-74
2024/04/14 11:16:31;;;;;;;1.60;1.50;;;22.80;99.90;;;;;;5367391;26;21035;-71
2024/04/14 11:18:56;;;;;;;2.70;1.93;;;23.10;99.90;;;;;;5372530;26;20290;-73
2024/04/14 11:21:26;;;;;;;2.17;1.70;;;23.00;99.90;;;;;;5371606;26;20484;-73
2024/04/14 11:23:52;;;;;;;1.73;1.60;;;23.20;99.90;;;;;;5369649;26;20370;-73
2024/04/14 11:26:21;;;;;;;1.90;1.60;;;23.20;99.90;;;;;;5386673;26;21553;-73
2024/04/14 11:28:48;;;;;;;2.60;1.80;;;23.30;99.90;;;;;;5384333;26;20598;-73
2024/04/14 11:31:13;;;;;;;1.40;1.30;;;23.30;99.90;;;;;;5359426;26;20483;-74
2024/04/14 11:33:41;;;;;;;2.17;2.00;;;23.20;99.90;;;;;;5362730;26;20290;-74
2024/04/14 11:36:10;;;;;;;5.47;1.90;;;23.40;99.90;;;;;;5369465;26;20272;-74
2024/04/14 11:38:37;;;;;;;1.80;1.50;;;23.70;99.90;;;;;;5349712;26;20484;-73
2024/04/14 11:41:03;;;;;;;1.87;1.67;;;23.90;99.90;;;;;;5375605;26;20552;-72
2024/04/14 11:43:30;;;;;;;1.80;1.53;;;23.80;99.90;;;;;;5386234;26;20540;-72
2024/04/14 11:45:56;;;;;;;5.73;1.80;;;23.60;99.90;;;;;;5369716;26;20839;-77
2024/04/14 11:48:24;;;;;;;1.83;1.73;;;23.50;99.90;;;;;;5356468;26;20551;-72
2024/04/14 11:50:51;;;;;;;2.00;1.90;;;23.30;99.90;;;;;;5381649;26;20310;-74
2024/04/14 11:53:17;;;;;;;1.70;1.60;;;23.20;99.90;;;;;;5369044;26;21344;-73
2024/04/14 11:55:43;;;;;;;2.10;1.90;;;23.30;99.90;;;;;;5361595;26;21116;-72
2024/04/14 11:58:09;;;;;;;4.03;3.00;;;23.10;99.90;;;;;;5343248;26;20724;-72
2024/04/14 12:00:35;;;;;;;3.67;2.17;;;23.20;99.90;;;;;;5373148;26;20261;-73
2024/04/14 12:03:02;;;;;;;2.20;2.00;;;23.50;99.90;;;;;;5365294;26;20604;-73
2024/04/14 12:05:27;;;;;;;2.10;1.90;;;23.30;99.90;;;;;;5375299;26;20499;-73
2024/04/14 12:07:53;;;;;;;2.07;1.90;;;23.00;99.90;;;;;;5338372;26;20262;-72
2024/04/14 12:10:18;;;;;;;1.80;1.70;;;23.50;99.90;;;;;;5376286;26;20670;-72
2024/04/14 12:12:44;;;;;;;3.60;2.07;;;23.90;99.90;;;;;;5351208;26;20591;-73
2024/04/14 12:15:10;;;;;;;1.77;1.53;;;23.20;99.90;;;;;;5342183;26;20353;-74
2024/04/14 12:17:36;;;;;;;1.50;1.40;;;23.50;99.90;;;;;;5354833;26;20257;-73
2024/04/14 12:20:02;;;;;;;1.53;1.33;;;23.30;99.90;;;;;;5367703;26;20546;-73
2024/04/14 12:22:28;;;;;;;2.57;1.40;;;22.80;99.90;;;;;;5372827;26;20292;-72
2024/04/14 12:24:53;;;;;;;1.60;1.50;;;22.60;99.90;;;;;;5374568;26;20738;-73
2024/04/14 12:27:19;;;;;;;1.33;1.10;;;22.90;99.90;;;;;;5341153;26;20260;-73
2024/04/14 12:29:47;;;;;;;2.40;1.70;;;23.10;99.90;;;;;;5373449;26;20303;-71
2024/04/14 12:32:13;;;;;;;1.47;1.37;;;23.20;99.90;;;;;;5358043;26;20743;-76
2024/04/14 12:34:38;;;;;;;1.10;1.10;;;23.60;99.90;;;;;;5373982;26;20497;-73
2024/04/14 12:37:04;;;;;;;1.10;1.00;;;22.80;99.60;;;;;;5330672;26;21122;-72
2024/04/14 12:39:30;;;;;;;1.80;1.40;;;22.70;99.50;;;;;;5378652;26;20254;-73
2024/04/14 12:41:56;;;;;;;2.07;1.30;;;22.30;99.90;;;;;;5366936;26;20336;-73
2024/04/14 12:44:21;;;;;;;4.80;1.40;;;22.40;99.90;;;;;;5364125;26;20311;-74